TLPL/UVF METAR and TAF weather

Enter ICAO airport designator
Station Type Date Time Source
TLPL METAR 2021/08/01 17:00 UTC NOAA

TLPL 011700Z 09013KT 9999 FEW029 31/25 Q1017 NOSIG


Station Type Date Time Source
TLPL Decoded METAR 2021/08/01 17:00 UTC NOAA

Hewanorra International Airport, Saint Lucia (TLPL) 13-45N 060-57W 10M
Aug 01, 2021 - 01:00 PM EDT / 2021.08.01 1700 UTC
Wind: from the E (090 degrees) at 15 MPH (13 KT):0
Visibility: greater than 7 mile(s):0
Sky conditions: mostly clear
Temperature: 87 F (31 C)
Heat index: 97.5 F (36.4 C):1
Dew Point: 77 F (25 C)
Relative Humidity: 70%
Pressure (altimeter): 30.03 in. Hg (1017 hPa)
ob: TLPL 011700Z 09013KT 9999 FEW029 31/25 Q1017 NOSIG
cycle: 17

Station Type Date Time Source
TLPL TAF 2021/08/01 18:03 UTC NOAA

TAF TLPL 011700Z 0118/0218 10015KT 9999 SCT027 PROB30
TEMPO 0200/0212 SHRA

Example: see airport list